Time;durP1;ratioP1;P1;durP2;ratioP2;P2;SDS_P1;SDS_P2;PMS_P1;PMS_P2;Temp;Humidity;BMP_temperature;BMP_pressure;BME280_temperature;BME280_humidity;BME280_pressure;Samples;Min_cycle;Max_cycle;Signal;HPM_P1;HPM_P2
2020/12/31 00:01:50;;;;;;;4.20;3.80;;;3.60;99.90;;;;;;5097310;28;20159;-80
2020/12/31 00:04:16;;;;;;;4.10;3.50;;;3.50;99.90;;;;;;5096143;28;20159;-79
2020/12/31 00:06:42;;;;;;;12.67;5.13;;;3.60;99.90;;;;;;5093959;28;20179;-80
2020/12/31 00:09:08;;;;;;;9.77;5.23;;;3.50;99.90;;;;;;5090638;28;20234;-81
2020/12/31 00:11:34;;;;;;;9.90;4.93;;;3.70;99.90;;;;;;5091992;28;20191;-81
2020/12/31 00:14:00;;;;;;;4.23;3.80;;;3.60;99.90;;;;;;5092028;28;20353;-81
2020/12/31 00:16:26;;;;;;;4.87;4.37;;;3.60;99.90;;;;;;5092574;28;20742;-81
2020/12/31 00:18:51;;;;;;;7.97;4.23;;;3.70;99.90;;;;;;5093109;28;20164;-81
2020/12/31 00:21:17;;;;;;;5.33;4.07;;;3.80;99.90;;;;;;5093008;28;20253;-82
2020/12/31 00:23:43;;;;;;;7.27;5.23;;;3.90;99.90;;;;;;5093069;28;20195;-82
2020/12/31 00:26:09;;;;;;;4.67;4.17;;;3.80;99.90;;;;;;5098610;28;20175;-80
2020/12/31 00:28:34;;;;;;;5.03;4.60;;;3.80;99.90;;;;;;5097188;28;20171;-81
2020/12/31 00:31:00;;;;;;;7.37;5.90;;;3.80;99.90;;;;;;5096944;28;20199;-80
2020/12/31 00:33:26;;;;;;;5.60;4.73;;;3.60;99.90;;;;;;5097632;28;20160;-80
2020/12/31 00:35:55;;;;;;;4.37;3.93;;;3.60;99.90;;;;;;5092913;28;20167;-81
2020/12/31 00:38:22;;;;;;;3.93;3.63;;;3.70;99.90;;;;;;5091659;28;20171;-81
2020/12/31 00:40:48;;;;;;;4.33;3.73;;;3.70;99.90;;;;;;5091079;28;20432;-80
2020/12/31 00:43:14;;;;;;;9.23;4.60;;;3.60;99.90;;;;;;5089371;28;20402;-81
2020/12/31 00:45:39;;;;;;;6.37;5.77;;;3.70;99.90;;;;;;5089437;28;20174;-81
2020/12/31 00:48:05;;;;;;;5.53;4.70;;;3.60;99.90;;;;;;5086846;28;20683;-82
2020/12/31 00:50:31;;;;;;;8.77;4.77;;;3.60;99.90;;;;;;5088255;28;20245;-80
2020/12/31 00:52:57;;;;;;;4.60;4.20;;;3.60;99.90;;;;;;5088862;28;20250;-82
2020/12/31 00:55:23;;;;;;;6.17;4.80;;;3.50;99.90;;;;;;5088755;28;20171;-81
2020/12/31 00:57:49;;;;;;;6.57;4.57;;;3.50;99.90;;;;;;5088774;28;20167;-83
2020/12/31 01:00:14;;;;;;;6.13;5.63;;;3.50;99.90;;;;;;5088923;28;20406;-82
2020/12/31 01:02:40;;;;;;;11.17;5.97;;;3.40;99.90;;;;;;5089634;28;20177;-82
2020/12/31 01:05:10;;;;;;;5.90;5.00;;;3.50;99.90;;;;;;5090388;28;20246;-82
2020/12/31 01:07:36;;;;;;;5.97;4.53;;;3.30;99.90;;;;;;5090180;28;20368;-82
2020/12/31 01:10:05;;;;;;;10.30;5.20;;;3.30;99.90;;;;;;5091988;28;20536;-82
2020/12/31 01:12:31;;;;;;;4.93;4.50;;;3.30;99.90;;;;;;5092658;28;20394;-82
2020/12/31 01:14:58;;;;;;;4.93;4.43;;;3.30;99.90;;;;;;5092160;28;20408;-82
2020/12/31 01:17:25;;;;;;;6.03;5.43;;;3.40;99.90;;;;;;5092207;28;20183;-82
2020/12/31 01:19:51;;;;;;;5.77;5.07;;;3.30;99.90;;;;;;5092737;28;20444;-82
2020/12/31 01:22:18;;;;;;;4.70;4.27;;;3.30;99.90;;;;;;5092777;28;20412;-81
2020/12/31 01:24:44;;;;;;;6.80;3.83;;;3.20;99.90;;;;;;5068357;28;20400;-82
2020/12/31 01:27:09;;;;;;;5.53;4.97;;;3.30;99.90;;;;;;5074600;28;20432;-80
2020/12/31 01:29:35;;;;;;;5.40;3.87;;;3.10;99.90;;;;;;5098879;28;20393;-80
2020/12/31 01:32:01;;;;;;;4.60;3.50;;;3.10;99.90;;;;;;5097386;28;20187;-80
2020/12/31 01:34:27;;;;;;;4.70;4.30;;;3.00;99.90;;;;;;5095390;28;20176;-82
2020/12/31 01:36:53;;;;;;;7.43;4.20;;;3.00;99.90;;;;;;5091637;28;20160;-82
2020/12/31 01:39:20;;;;;;;6.10;4.53;;;3.00;99.90;;;;;;5090783;28;20235;-83
2020/12/31 01:41:46;;;;;;;4.43;3.97;;;3.00;99.90;;;;;;5092668;28;20391;-82
2020/12/31 01:44:13;;;;;;;4.53;4.07;;;2.90;99.90;;;;;;5092372;28;20405;-82
2020/12/31 01:46:43;;;;;;;5.47;4.53;;;3.10;99.90;;;;;;5087668;28;20420;-81
2020/12/31 01:49:11;;;;;;;5.20;4.70;;;3.00;99.90;;;;;;5084488;28;20390;-81
2020/12/31 01:51:38;;;;;;;4.87;4.43;;;3.00;99.90;;;;;;5084540;28;20481;-81
2020/12/31 01:54:04;;;;;;;7.27;4.63;;;3.00;99.90;;;;;;5087156;28;20393;-82
2020/12/31 01:56:32;;;;;;;5.60;5.10;;;3.00;99.90;;;;;;5085684;28;20368;-82
2020/12/31 01:58:59;;;;;;;5.23;4.70;;;2.90;99.90;;;;;;5086511;28;20215;-81
2020/12/31 02:01:26;;;;;;;4.30;3.90;;;3.00;99.90;;;;;;5085709;28;20458;-82
2020/12/31 02:03:54;;;;;;;5.70;5.20;;;2.90;99.90;;;;;;5083492;28;20376;-80
2020/12/31 02:06:21;;;;;;;8.50;6.03;;;2.90;99.90;;;;;;5081776;28;20401;-80
2020/12/31 02:08:47;;;;;;;9.90;4.50;;;2.90;99.90;;;;;;5081652;28;20398;-80
2020/12/31 02:11:14;;;;;;;6.97;4.80;;;2.90;99.90;;;;;;5080932;28;20461;-80
2020/12/31 02:13:42;;;;;;;6.60;5.30;;;3.00;99.90;;;;;;5081659;28;20440;-81
2020/12/31 02:16:13;;;;;;;7.30;5.23;;;2.90;99.90;;;;;;5080267;28;20433;-80
2020/12/31 02:18:57;;;;;;;5.00;4.50;;;3.10;99.90;;;;;;5083373;28;20392;-81
2020/12/31 02:21:26;;;;;;;7.10;5.50;;;3.00;99.90;;;;;;5084975;28;20443;-80
2020/12/31 02:23:52;;;;;;;5.93;4.70;;;3.20;99.90;;;;;;5085001;28;20415;-81
2020/12/31 02:26:19;;;;;;;5.37;4.90;;;3.10;99.90;;;;;;5066808;28;20507;-82
2020/12/31 02:28:45;;;;;;;6.10;5.27;;;3.30;99.90;;;;;;5086009;28;20424;-81
2020/12/31 02:31:11;;;;;;;6.87;5.30;;;3.20;99.90;;;;;;5085608;28;20441;-80
2020/12/31 02:33:37;;;;;;;6.63;4.40;;;3.00;99.90;;;;;;5085136;28;20164;-80
2020/12/31 02:36:03;;;;;;;15.93;3.93;;;3.00;99.90;;;;;;5085545;28;20197;-80
2020/12/31 02:38:29;;;;;;;4.33;3.93;;;2.90;99.90;;;;;;5084540;28;20195;-81
2020/12/31 02:40:54;;;;;;;5.93;4.60;;;2.80;99.90;;;;;;5084940;28;20456;-80
2020/12/31 02:43:20;;;;;;;12.30;5.47;;;2.90;99.90;;;;;;5085461;28;20178;-80
2020/12/31 02:45:46;;;;;;;5.87;4.27;;;3.00;99.90;;;;;;5085713;28;20172;-81
2020/12/31 02:48:12;;;;;;;7.33;5.53;;;3.00;99.90;;;;;;5083472;28;20433;-81
2020/12/31 02:50:38;;;;;;;6.03;4.40;;;2.90;99.90;;;;;;5084029;28;20639;-81
2020/12/31 02:53:04;;;;;;;4.73;4.20;;;2.70;99.90;;;;;;5084406;28;20163;-80
2020/12/31 02:55:29;;;;;;;6.00;5.00;;;2.80;99.90;;;;;;5069304;28;20159;-81
2020/12/31 02:57:55;;;;;;;5.23;4.53;;;3.00;99.90;;;;;;5088269;28;20457;-80
2020/12/31 03:00:21;;;;;;;4.50;4.10;;;2.80;99.90;;;;;;5089424;28;20500;-81
2020/12/31 03:02:47;;;;;;;5.83;5.13;;;2.80;99.90;;;;;;5089115;28;20170;-80
2020/12/31 03:05:12;;;;;;;7.50;4.90;;;2.70;99.90;;;;;;5088945;28;20630;-81
2020/12/31 03:07:38;;;;;;;4.57;4.17;;;2.70;99.90;;;;;;5088328;28;20159;-80
2020/12/31 03:10:04;;;;;;;5.00;4.00;;;2.60;99.90;;;;;;5088399;28;20246;-82
2020/12/31 03:12:30;;;;;;;4.97;4.50;;;2.80;99.90;;;;;;5088398;28;20174;-80
2020/12/31 03:14:56;;;;;;;6.87;5.53;;;2.90;99.90;;;;;;5089155;28;20373;-80
2020/12/31 03:17:21;;;;;;;7.50;5.23;;;2.90;99.90;;;;;;5089250;28;20189;-81
2020/12/31 03:19:47;;;;;;;5.33;4.73;;;2.90;99.90;;;;;;5086167;28;20202;-80
2020/12/31 03:22:13;;;;;;;8.00;6.60;;;3.00;99.90;;;;;;5086086;28;20262;-81
2020/12/31 03:24:38;;;;;;;6.70;5.60;;;2.90;99.90;;;;;;5085342;28;20183;-80
2020/12/31 03:27:04;;;;;;;7.10;5.47;;;2.80;99.90;;;;;;5084978;28;20163;-80
2020/12/31 03:29:30;;;;;;;6.73;4.27;;;2.90;99.90;;;;;;5085835;28;20518;-80
2020/12/31 03:31:55;;;;;;;5.63;5.13;;;2.90;99.90;;;;;;5092024;28;20186;-80
2020/12/31 03:34:21;;;;;;;5.50;5.00;;;2.80;99.90;;;;;;5100405;28;20168;-80
2020/12/31 03:36:47;;;;;;;6.67;5.03;;;2.80;99.90;;;;;;5093603;28;20260;-82
2020/12/31 03:39:13;;;;;;;5.30;4.90;;;2.70;99.90;;;;;;5094275;28;20174;-82
2020/12/31 03:41:38;;;;;;;5.57;4.00;;;2.60;99.90;;;;;;5093882;28;20568;-82
2020/12/31 03:44:04;;;;;;;4.93;4.50;;;2.50;99.90;;;;;;5093158;28;20213;-81
2020/12/31 03:46:30;;;;;;;6.10;5.13;;;2.30;99.90;;;;;;5091590;28;20283;-82
2020/12/31 03:48:55;;;;;;;7.20;5.20;;;2.40;99.90;;;;;;5091085;28;20155;-80
2020/12/31 03:51:21;;;;;;;6.67;5.60;;;2.30;99.90;;;;;;5089628;28;20258;-80
2020/12/31 03:53:47;;;;;;;5.03;3.73;;;2.10;99.90;;;;;;5089121;28;20164;-80
2020/12/31 03:56:13;;;;;;;5.70;4.57;;;2.00;99.90;;;;;;5089280;28;20156;-81
2020/12/31 03:58:39;;;;;;;5.30;4.80;;;2.00;99.90;;;;;;5089497;28;20608;-80
2020/12/31 04:01:05;;;;;;;6.50;5.93;;;2.10;99.90;;;;;;5096195;28;20412;-82
2020/12/31 04:03:30;;;;;;;7.00;5.53;;;1.90;99.90;;;;;;5093966;28;20274;-83
2020/12/31 04:05:56;;;;;;;6.50;5.30;;;1.90;99.90;;;;;;5092250;28;20167;-82
2020/12/31 04:08:22;;;;;;;7.70;5.57;;;1.80;99.90;;;;;;5091852;28;20193;-83
2020/12/31 04:10:47;;;;;;;4.03;3.57;;;1.90;99.90;;;;;;5093569;28;20195;-83
2020/12/31 04:13:13;;;;;;;7.90;5.63;;;1.80;99.90;;;;;;5093145;28;20168;-83
2020/12/31 04:15:39;;;;;;;11.03;5.10;;;1.80;99.90;;;;;;5093431;28;20155;-83
2020/12/31 04:18:05;;;;;;;5.00;4.53;;;1.60;99.90;;;;;;5093085;28;20163;-83
2020/12/31 04:20:30;;;;;;;6.43;5.00;;;1.30;99.90;;;;;;5093027;28;20202;-82
2020/12/31 04:22:56;;;;;;;7.47;5.30;;;1.30;99.90;;;;;;5093140;28;20211;-82
2020/12/31 04:25:22;;;;;;;5.80;5.13;;;1.30;99.90;;;;;;5093503;28;20565;-82
2020/12/31 04:27:47;;;;;;;6.37;5.73;;;1.30;99.90;;;;;;5090742;28;20171;-82
2020/12/31 04:30:13;;;;;;;5.77;5.20;;;1.30;99.90;;;;;;5092805;28;20177;-82
2020/12/31 04:32:39;;;;;;;11.67;6.37;;;1.30;99.90;;;;;;5092404;28;20235;-81
2020/12/31 04:35:05;;;;;;;4.80;4.00;;;1.30;99.90;;;;;;5092102;28;20190;-81
2020/12/31 04:37:31;;;;;;;7.43;5.13;;;1.30;99.90;;;;;;5092719;28;20235;-81
2020/12/31 04:39:56;;;;;;;8.20;5.57;;;1.30;99.90;;;;;;5091475;28;20364;-82
2020/12/31 04:42:32;;;;;;;5.37;4.87;;;1.30;99.90;;;;;;5092668;28;20178;-81
2020/12/31 04:44:58;;;;;;;7.77;4.20;;;1.30;99.90;;;;;;5092685;28;20254;-82
2020/12/31 04:47:23;;;;;;;4.50;4.00;;;1.30;99.90;;;;;;5072370;28;20446;-82
2020/12/31 04:49:51;;;;;;;6.63;5.57;;;1.40;99.90;;;;;;5073578;28;20401;-82
2020/12/31 04:52:18;;;;;;;6.87;5.63;;;1.50;99.90;;;;;;5073826;28;20228;-81
2020/12/31 04:54:44;;;;;;;8.50;5.93;;;1.40;99.90;;;;;;5075378;28;20405;-80
2020/12/31 04:57:10;;;;;;;11.77;6.67;;;1.50;99.90;;;;;;5044959;28;20407;-79
2020/12/31 04:59:36;;;;;;;7.30;5.00;;;1.50;99.90;;;;;;5079237;28;20389;-79
2020/12/31 05:02:05;;;;;;;9.40;7.50;;;1.60;99.90;;;;;;5074232;28;20445;-81
2020/12/31 05:04:31;;;;;;;8.10;5.97;;;1.70;99.90;;;;;;5069384;28;20391;-80
2020/12/31 05:06:58;;;;;;;9.77;6.70;;;1.70;99.90;;;;;;5070904;28;20395;-80
2020/12/31 05:09:24;;;;;;;9.60;6.27;;;1.90;99.90;;;;;;5070168;28;20409;-82
2020/12/31 05:11:51;;;;;;;7.00;6.40;;;1.90;99.90;;;;;;5070635;28;20437;-81
2020/12/31 05:14:29;;;;;;;5.90;5.30;;;1.80;99.90;;;;;;5070585;28;20164;-82
2020/12/31 05:16:55;;;;;;;7.17;6.40;;;1.90;99.90;;;;;;5070858;28;20414;-82
2020/12/31 05:19:22;;;;;;;6.43;5.83;;;1.90;99.90;;;;;;5072901;28;20419;-80
2020/12/31 05:22:08;;;;;;;10.30;6.30;;;2.00;99.90;;;;;;5076312;28;20175;-82
2020/12/31 05:24:34;;;;;;;11.33;7.40;;;1.90;99.90;;;;;;5075968;28;20407;-81
2020/12/31 05:27:15;;;;;;;8.60;5.80;;;1.90;99.90;;;;;;5071134;28;20384;-82
2020/12/31 05:29:58;;;;;;;7.07;5.93;;;1.90;99.90;;;;;;5070896;28;20175;-82
2020/12/31 05:35:13;;;;;;;7.47;5.50;;;1.90;99.90;;;;;;5069310;28;20386;-82
2020/12/31 05:37:39;;;;;;;8.60;6.07;;;1.90;99.90;;;;;;5066782;28;20403;-81
2020/12/31 05:40:09;;;;;;;8.97;7.40;;;1.90;99.90;;;;;;5065806;28;20399;-82
2020/12/31 05:42:36;;;;;;;8.83;5.30;;;1.90;99.90;;;;;;5065466;28;20369;-81
2020/12/31 05:45:24;;;;;;;6.57;5.67;;;1.80;99.90;;;;;;5066207;28;20377;-81
2020/12/31 05:47:52;;;;;;;7.67;6.23;;;1.80;99.90;;;;;;5083667;28;20457;-80
2020/12/31 05:50:26;;;;;;;9.00;6.80;;;1.70;99.90;;;;;;5086226;28;20398;-81
2020/12/31 05:52:53;;;;;;;11.70;5.87;;;1.60;99.90;;;;;;5087431;28;20361;-81
2020/12/31 05:55:21;;;;;;;13.03;7.37;;;1.60;99.90;;;;;;5086315;28;20846;-80
2020/12/31 05:57:55;;;;;;;6.77;6.17;;;1.80;99.90;;;;;;5086523;28;20453;-80
2020/12/31 06:00:27;;;;;;;22.53;6.20;;;1.80;99.90;;;;;;5086732;28;20363;-81
2020/12/31 06:02:56;;;;;;;7.77;6.97;;;1.70;99.90;;;;;;5086694;28;20466;-81
2020/12/31 06:05:24;;;;;;;6.20;5.03;;;1.50;99.90;;;;;;5086649;28;20412;-81
2020/12/31 06:07:53;;;;;;;11.33;7.53;;;1.40;99.90;;;;;;5087700;28;20405;-82
2020/12/31 06:10:25;;;;;;;10.30;4.40;;;1.50;99.90;;;;;;5088096;28;20383;-81
2020/12/31 06:12:56;;;;;;;9.70;6.53;;;1.40;99.90;;;;;;5089313;28;20392;-80
2020/12/31 06:15:25;;;;;;;8.17;6.40;;;1.60;99.90;;;;;;5088519;28;20394;-81
2020/12/31 06:17:51;;;;;;;8.57;6.50;;;1.40;99.90;;;;;;5071281;28;20447;-81
2020/12/31 06:20:19;;;;;;;7.07;5.33;;;1.50;99.90;;;;;;5089172;28;20426;-81
2020/12/31 06:23:05;;;;;;;9.67;6.17;;;1.60;99.90;;;;;;5089634;28;20390;-82
2020/12/31 06:25:33;;;;;;;7.13;6.40;;;1.60;99.90;;;;;;5089052;28;20368;-82
2020/12/31 06:28:19;;;;;;;11.93;5.33;;;1.50;99.90;;;;;;5089654;28;20394;-82
2020/12/31 06:30:51;;;;;;;6.80;5.17;;;1.40;99.90;;;;;;5089698;28;20416;-82
2020/12/31 06:33:32;;;;;;;7.87;5.50;;;1.50;99.90;;;;;;5072683;28;20405;-82
2020/12/31 06:36:00;;;;;;;7.30;5.37;;;1.40;99.90;;;;;;5097671;28;20393;-80
2020/12/31 06:38:29;;;;;;;8.13;7.30;;;1.40;99.90;;;;;;5097762;28;20398;-79
2020/12/31 06:40:55;;;;;;;9.07;7.20;;;1.20;99.90;;;;;;5097548;28;20421;-80
2020/12/31 06:43:31;;;;;;;9.20;6.63;;;1.10;99.90;;;;;;5096581;28;20401;-80
2020/12/31 06:45:57;;;;;;;8.10;5.87;;;1.20;99.90;;;;;;5097185;28;20356;-81
2020/12/31 06:48:39;;;;;;;5.93;5.20;;;1.20;99.90;;;;;;5094223;28;20833;-82
2020/12/31 06:51:07;;;;;;;7.37;5.97;;;1.20;99.90;;;;;;5089461;28;20491;-81
2020/12/31 06:53:38;;;;;;;10.37;7.80;;;1.20;99.90;;;;;;5087905;28;20401;-81
2020/12/31 06:56:07;;;;;;;6.43;5.87;;;1.30;99.90;;;;;;5087278;28;20451;-81
2020/12/31 06:58:33;;;;;;;6.27;4.57;;;1.20;99.90;;;;;;5086325;28;20390;-81
2020/12/31 07:01:00;;;;;;;6.00;5.40;;;1.10;99.90;;;;;;5086440;28;20401;-81
2020/12/31 07:03:46;;;;;;;8.60;4.73;;;1.20;99.90;;;;;;5085772;28;20418;-81
2020/12/31 07:06:30;;;;;;;11.23;6.43;;;1.20;99.90;;;;;;5086180;28;20377;-81
2020/12/31 07:08:58;;;;;;;6.20;5.60;;;1.30;99.90;;;;;;5085067;28;20501;-82
2020/12/31 07:11:36;;;;;;;11.00;6.50;;;1.40;99.90;;;;;;5085052;28;20871;-80
2020/12/31 07:14:20;;;;;;;11.00;7.70;;;1.40;99.90;;;;;;5089542;28;20423;-82
2020/12/31 07:16:57;;;;;;;9.80;5.47;;;1.40;99.90;;;;;;5090615;28;20404;-81
2020/12/31 07:19:44;;;;;;;7.27;5.00;;;1.20;99.90;;;;;;5089712;28;20425;-81
2020/12/31 07:22:19;;;;;;;6.43;5.90;;;1.20;99.90;;;;;;5090800;28;20398;-81
2020/12/31 07:24:57;;;;;;;8.17;6.37;;;1.20;99.90;;;;;;5088200;28;20379;-81
2020/12/31 07:27:27;;;;;;;10.93;5.87;;;1.30;99.90;;;;;;5088359;28;20397;-82
2020/12/31 07:30:17;;;;;;;9.43;5.83;;;1.40;99.90;;;;;;5086426;28;20413;-81
2020/12/31 07:32:52;;;;;;;7.97;6.67;;;1.30;99.90;;;;;;5086831;28;20497;-81
2020/12/31 07:35:29;;;;;;;11.50;6.67;;;1.30;99.90;;;;;;5084786;28;20393;-80
2020/12/31 07:37:58;;;;;;;7.47;6.20;;;1.30;99.90;;;;;;5081042;28;20860;-79
2020/12/31 07:40:27;;;;;;;7.70;5.03;;;1.30;99.90;;;;;;5081359;28;20393;-81
2020/12/31 07:42:53;;;;;;;6.50;5.90;;;1.30;99.90;;;;;;5084164;28;20415;-81
2020/12/31 07:45:19;;;;;;;6.77;5.63;;;1.30;99.90;;;;;;5085717;28;20714;-80
2020/12/31 07:47:50;;;;;;;7.00;5.77;;;1.30;99.90;;;;;;5085324;28;20227;-80
2020/12/31 07:50:16;;;;;;;7.20;5.80;;;1.40;99.90;;;;;;5084366;28;20183;-80
2020/12/31 07:52:41;;;;;;;13.20;7.37;;;1.30;99.90;;;;;;5083803;28;20413;-80
2020/12/31 07:55:07;;;;;;;6.43;5.80;;;1.30;99.90;;;;;;5084096;28;20163;-84
2020/12/31 07:57:37;;;;;;;6.57;5.80;;;1.40;99.90;;;;;;5088244;28;20186;-83
2020/12/31 08:00:03;;;;;;;6.83;6.03;;;1.60;99.90;;;;;;5089655;28;20158;-82
2020/12/31 08:02:30;;;;;;;5.70;5.00;;;1.40;99.90;;;;;;5074883;28;20394;-83
2020/12/31 08:04:56;;;;;;;6.40;5.13;;;1.40;99.90;;;;;;5060748;28;20416;-84
2020/12/31 08:07:23;;;;;;;9.67;6.40;;;1.40;99.90;;;;;;5075335;28;20421;-83
2020/12/31 08:09:50;;;;;;;6.60;5.23;;;1.50;99.90;;;;;;5085802;28;20194;-83
2020/12/31 08:12:16;;;;;;;7.70;6.30;;;1.50;99.90;;;;;;5043478;28;20473;-83
2020/12/31 08:14:44;;;;;;;9.67;7.27;;;1.70;99.90;;;;;;5024942;28;20474;-83
2020/12/31 08:17:10;;;;;;;8.13;7.33;;;1.90;99.90;;;;;;5042179;28;20936;-84
2020/12/31 08:19:38;;;;;;;12.30;7.93;;;2.20;99.90;;;;;;5011083;28;20757;-84
2020/12/31 08:22:11;;;;;;;12.27;6.57;;;2.70;99.90;;;;;;5009484;28;20382;-83
2020/12/31 08:24:44;;;;;;;8.43;6.73;;;2.90;99.90;;;;;;5026956;28;20370;-83
2020/12/31 08:27:16;;;;;;;16.50;9.00;;;2.90;99.90;;;;;;5026236;28;20512;-83
2020/12/31 08:29:44;;;;;;;11.80;8.00;;;2.80;99.90;;;;;;5027453;28;20400;-83
2020/12/31 08:32:14;;;;;;;8.43;7.50;;;3.10;99.90;;;;;;5009982;28;20459;-83
2020/12/31 08:34:40;;;;;;;8.87;6.83;;;3.20;99.90;;;;;;5009036;28;20417;-83
2020/12/31 08:37:07;;;;;;;6.20;5.57;;;3.30;99.90;;;;;;5026364;28;20479;-83
2020/12/31 08:39:33;;;;;;;10.67;7.40;;;3.00;99.90;;;;;;5021451;28;20377;-82
2020/12/31 08:42:00;;;;;;;6.37;5.57;;;3.00;99.90;;;;;;5038492;28;20435;-82
2020/12/31 08:44:27;;;;;;;13.60;8.40;;;2.80;99.90;;;;;;5093840;28;20717;-83
2020/12/31 08:46:54;;;;;;;7.17;6.20;;;3.10;99.90;;;;;;5083086;28;20520;-83
2020/12/31 08:49:24;;;;;;;9.60;7.40;;;2.90;99.90;;;;;;5065308;28;20410;-84
2020/12/31 08:51:51;;;;;;;8.27;6.47;;;2.70;99.90;;;;;;5065998;28;20456;-83
2020/12/31 08:54:17;;;;;;;10.30;7.33;;;2.80;99.90;;;;;;5082401;28;20364;-83
2020/12/31 08:56:43;;;;;;;11.30;8.27;;;3.60;99.90;;;;;;5064837;28;20397;-81
2020/12/31 08:59:10;;;;;;;9.53;7.63;;;4.30;99.90;;;;;;5082052;28;20373;-83
2020/12/31 09:01:36;;;;;;;13.60;8.00;;;4.90;99.90;;;;;;5064411;28;20262;-81
2020/12/31 09:04:06;;;;;;;8.87;7.30;;;4.90;99.90;;;;;;5080560;28;20376;-82
2020/12/31 09:06:33;;;;;;;8.70;6.33;;;5.00;99.90;;;;;;5064818;28;20376;-82
2020/12/31 09:09:01;;;;;;;12.10;8.07;;;5.90;99.90;;;;;;5065123;28;20834;-81
2020/12/31 09:11:29;;;;;;;11.50;8.07;;;6.00;99.90;;;;;;5063337;28;20460;-81
2020/12/31 09:14:06;;;;;;;8.03;5.70;;;5.90;99.90;;;;;;5064983;28;20376;-81
2020/12/31 09:16:32;;;;;;;9.47;7.27;;;5.60;99.90;;;;;;5081721;28;20467;-81
2020/12/31 09:19:00;;;;;;;7.70;6.17;;;5.90;99.90;;;;;;5065155;28;20411;-81
2020/12/31 09:21:28;;;;;;;8.73;6.77;;;6.00;99.90;;;;;;5078741;28;20197;-80
2020/12/31 09:23:54;;;;;;;8.73;6.73;;;6.00;99.90;;;;;;5080347;28;20375;-81
2020/12/31 09:26:25;;;;;;;11.47;7.30;;;7.30;99.90;;;;;;5063470;28;20758;-82
2020/12/31 09:28:51;;;;;;;14.03;8.37;;;8.90;99.90;;;;;;5081452;28;20732;-81
2020/12/31 09:31:22;;;;;;;9.10;6.70;;;9.80;99.90;;;;;;5063766;28;20463;-81
2020/12/31 09:33:48;;;;;;;7.63;6.90;;;9.00;99.90;;;;;;5081280;28;20369;-81
2020/12/31 09:36:22;;;;;;;11.40;7.30;;;8.60;99.90;;;;;;5081310;28;20437;-81
2020/12/31 09:38:48;;;;;;;8.77;6.37;;;9.40;99.90;;;;;;5063218;28;20464;-81
2020/12/31 09:41:13;;;;;;;8.43;5.23;;;8.30;99.90;;;;;;5082578;28;20728;-80
2020/12/31 09:43:39;;;;;;;7.63;6.73;;;7.60;99.90;;;;;;5080169;28;20199;-80
2020/12/31 09:46:05;;;;;;;7.93;5.57;;;7.30;99.90;;;;;;5081396;28;20249;-80
2020/12/31 09:48:31;;;;;;;10.03;6.27;;;7.40;99.90;;;;;;5082385;28;20198;-81
2020/12/31 09:50:56;;;;;;;6.53;5.93;;;7.50;99.90;;;;;;5081781;28;20195;-80
2020/12/31 09:53:22;;;;;;;7.17;6.13;;;7.00;99.90;;;;;;5083597;28;20167;-79
2020/12/31 09:55:48;;;;;;;5.93;5.30;;;7.60;99.90;;;;;;5080164;28;20596;-80
2020/12/31 09:58:14;;;;;;;7.00;6.30;;;7.60;99.90;;;;;;5079906;28;20577;-82
2020/12/31 10:00:39;;;;;;;9.17;6.73;;;8.30;99.90;;;;;;5061517;28;20206;-83
2020/12/31 10:03:05;;;;;;;9.20;8.00;;;9.10;99.90;;;;;;5078933;28;20245;-83
2020/12/31 10:05:31;;;;;;;8.07;7.27;;;9.00;99.90;;;;;;5064819;28;20255;-82
2020/12/31 10:07:57;;;;;;;11.17;7.20;;;9.70;99.90;;;;;;5068199;28;20383;-81
2020/12/31 10:10:23;;;;;;;5.37;4.87;;;10.20;99.90;;;;;;5084472;28;20160;-82
2020/12/31 10:12:49;;;;;;;7.23;6.37;;;10.20;99.90;;;;;;5090724;28;20201;-81
2020/12/31 10:15:14;;;;;;;6.23;5.63;;;10.90;99.90;;;;;;5075230;28;20155;-82
2020/12/31 10:17:40;;;;;;;7.17;6.23;;;11.40;99.90;;;;;;5053982;28;20377;-80
2020/12/31 10:20:06;;;;;;;9.23;4.93;;;8.90;99.90;;;;;;5077249;28;20194;-81
2020/12/31 10:22:32;;;;;;;7.50;5.90;;;8.90;99.90;;;;;;5077712;28;20213;-80
2020/12/31 10:24:58;;;;;;;7.53;6.70;;;7.80;99.90;;;;;;5078311;28;20604;-82
2020/12/31 10:27:23;;;;;;;6.20;5.27;;;8.50;99.90;;;;;;5077945;28;20415;-82
2020/12/31 10:29:49;;;;;;;5.80;5.20;;;8.20;99.90;;;;;;5079526;28;20163;-80
2020/12/31 10:32:15;;;;;;;6.57;5.50;;;8.40;99.90;;;;;;5065629;28;20242;-78
2020/12/31 10:34:41;;;;;;;5.50;4.87;;;8.30;99.90;;;;;;5019001;28;20199;-78
2020/12/31 10:37:07;;;;;;;7.27;6.60;;;7.40;99.90;;;;;;5002068;28;20412;-80
2020/12/31 10:39:33;;;;;;;6.80;5.87;;;9.00;99.90;;;;;;5018496;28;20389;-80
2020/12/31 10:41:59;;;;;;;8.20;6.10;;;8.70;99.90;;;;;;5019973;28;20248;-79
2020/12/31 10:44:28;;;;;;;5.87;5.00;;;9.40;99.90;;;;;;5036416;28;20175;-79
2020/12/31 10:46:56;;;;;;;5.77;5.10;;;8.40;99.90;;;;;;5019189;28;20414;-80
2020/12/31 10:49:24;;;;;;;10.83;5.73;;;8.90;99.90;;;;;;5023566;28;20611;-81
2020/12/31 10:51:51;;;;;;;14.33;5.93;;;8.60;99.90;;;;;;5019451;28;20452;-83
2020/12/31 10:54:17;;;;;;;5.50;5.00;;;10.00;99.90;;;;;;5038288;28;20633;-82
2020/12/31 10:56:42;;;;;;;6.77;5.30;;;9.50;99.90;;;;;;5035940;28;20404;-82
2020/12/31 10:59:08;;;;;;;6.10;5.30;;;10.20;99.90;;;;;;5034009;28;20159;-82
2020/12/31 11:01:34;;;;;;;5.33;4.83;;;9.00;99.90;;;;;;5038209;28;20187;-81
2020/12/31 11:04:00;;;;;;;5.13;4.70;;;8.70;99.90;;;;;;5037188;28;20180;-82
2020/12/31 11:06:27;;;;;;;5.40;4.90;;;9.00;99.90;;;;;;5071363;28;20189;-81
2020/12/31 11:08:54;;;;;;;6.20;5.13;;;9.50;99.90;;;;;;5061515;28;20233;-81
2020/12/31 11:11:25;;;;;;;6.73;4.43;;;9.10;99.90;;;;;;5078570;28;20449;-83
2020/12/31 11:13:52;;;;;;;5.67;5.13;;;9.30;99.90;;;;;;5060407;28;20468;-81
2020/12/31 11:16:20;;;;;;;7.27;5.53;;;10.10;99.90;;;;;;5079706;28;20356;-80
2020/12/31 11:18:47;;;;;;;5.93;5.27;;;9.10;99.90;;;;;;5063409;28;20386;-81
2020/12/31 11:21:15;;;;;;;5.63;5.10;;;10.00;99.90;;;;;;5045816;28;20384;-81
2020/12/31 11:23:41;;;;;;;6.67;5.50;;;9.80;99.90;;;;;;5062777;28;20536;-81
2020/12/31 11:26:23;;;;;;;5.73;5.23;;;9.60;99.90;;;;;;5062595;28;20393;-80
2020/12/31 11:28:49;;;;;;;5.80;5.20;;;9.70;99.90;;;;;;5064841;28;20171;-82
2020/12/31 11:31:23;;;;;;;5.57;4.83;;;10.70;99.90;;;;;;5083657;28;20437;-82
2020/12/31 11:33:49;;;;;;;5.53;4.87;;;11.40;99.90;;;;;;5070078;28;20393;-81
2020/12/31 11:36:20;;;;;;;5.90;5.30;;;12.00;99.90;;;;;;5081642;28;20734;-82
2020/12/31 11:38:46;;;;;;;4.60;4.20;;;10.00;99.90;;;;;;5031299;28;20481;-82
2020/12/31 11:41:12;;;;;;;5.20;4.27;;;10.90;99.90;;;;;;5046505;28;20450;-81
2020/12/31 11:43:38;;;;;;;5.47;5.07;;;9.80;99.90;;;;;;5077757;28;20795;-82
2020/12/31 11:46:06;;;;;;;8.90;5.70;;;10.30;99.90;;;;;;5038620;28;20216;-82
2020/12/31 11:48:32;;;;;;;6.27;5.00;;;10.10;99.90;;;;;;5040146;28;20486;-82
2020/12/31 11:50:58;;;;;;;5.73;5.30;;;10.70;99.90;;;;;;5038455;28;20530;-82
2020/12/31 11:53:24;;;;;;;5.17;4.60;;;10.80;99.90;;;;;;5040284;28;20794;-83
2020/12/31 11:55:50;;;;;;;4.83;4.30;;;10.70;99.90;;;;;;5040413;28;20460;-82
2020/12/31 11:58:17;;;;;;;4.73;4.30;;;10.80;99.90;;;;;;5041273;28;20195;-82
2020/12/31 12:00:43;;;;;;;6.33;4.10;;;11.40;99.90;;;;;;5051705;28;20370;-82
2020/12/31 12:03:10;;;;;;;5.40;4.50;;;12.60;99.90;;;;;;5041988;28;20403;-80
2020/12/31 12:05:36;;;;;;;4.20;3.63;;;12.60;99.90;;;;;;5039078;28;20436;-82
2020/12/31 12:08:04;;;;;;;4.37;3.60;;;12.50;99.90;;;;;;5040266;28;20377;-82
2020/12/31 12:10:30;;;;;;;4.50;3.57;;;12.30;99.90;;;;;;5038835;28;20376;-81
2020/12/31 12:12:55;;;;;;;4.67;3.43;;;10.80;99.90;;;;;;5040435;28;20482;-81
2020/12/31 12:15:21;;;;;;;5.03;4.63;;;10.60;99.90;;;;;;5039540;28;20366;-80
2020/12/31 12:17:49;;;;;;;4.53;3.80;;;10.40;99.90;;;;;;5039838;28;20176;-81
2020/12/31 12:20:16;;;;;;;4.53;3.37;;;9.60;99.90;;;;;;5038935;28;20231;-82
2020/12/31 12:22:44;;;;;;;4.40;4.00;;;10.90;99.90;;;;;;5041199;28;20409;-82
2020/12/31 12:25:12;;;;;;;4.73;3.93;;;10.10;99.90;;;;;;5041927;28;20395;-81
2020/12/31 12:27:39;;;;;;;4.17;3.77;;;9.60;99.90;;;;;;5058546;28;20211;-81
2020/12/31 12:30:10;;;;;;;5.67;4.13;;;11.00;99.90;;;;;;5059623;28;20365;-81
2020/12/31 12:32:37;;;;;;;5.00;4.50;;;11.20;99.90;;;;;;5060603;28;20794;-82
2020/12/31 12:35:07;;;;;;;4.70;4.30;;;11.50;99.90;;;;;;5061399;28;20401;-83
2020/12/31 12:37:33;;;;;;;4.13;3.50;;;11.70;99.90;;;;;;5059396;28;20409;-82
2020/12/31 12:39:59;;;;;;;4.63;4.10;;;11.10;99.90;;;;;;5060215;28;20373;-81
2020/12/31 12:42:25;;;;;;;5.50;3.97;;;10.70;99.90;;;;;;5059427;28;20544;-82
2020/12/31 12:44:51;;;;;;;4.57;4.10;;;9.50;99.90;;;;;;5061332;28;20652;-81
2020/12/31 12:47:16;;;;;;;4.20;3.80;;;9.00;99.90;;;;;;5038108;28;20224;-81
2020/12/31 12:49:44;;;;;;;4.13;3.83;;;8.50;99.90;;;;;;5037943;28;20390;-80
2020/12/31 12:52:10;;;;;;;4.33;3.87;;;7.80;99.90;;;;;;5037013;28;20335;-80
2020/12/31 12:54:39;;;;;;;5.30;4.03;;;7.70;99.90;;;;;;5037489;28;20362;-78
2020/12/31 12:57:07;;;;;;;5.70;4.13;;;7.70;99.90;;;;;;5024396;28;20239;-79
2020/12/31 12:59:33;;;;;;;4.80;3.37;;;7.60;99.90;;;;;;5040722;28;20396;-79
2020/12/31 13:01:59;;;;;;;4.33;3.97;;;7.00;99.90;;;;;;5023758;28;20180;-77